首页
METAR-TAF:

METAR-TAF

机场 :

Wawa, 安大略省, 加拿大

纬度: 47-58N, 经度: 084-47W, 海拔: 287米

当前天气观测

该预报发布于8小时和40分钟前的00:00 UTC
风速5节,风向西南
温度 23°C
湿度 25%
气压 1016 hPa
能見度: 24.1公里
天空无云

METAR: CYXZ 300000Z 23005KT 15SM SKC 23/02 A3000 RMK LAST OBS/NEXT 301100UTC SLP165 DENSITY ALT 2000FT

时间: 04:40 (08:40 UTC)

预报

该预报发布于13小时和0分钟前的19:40 UTC
预报有效从29日的 20点(UTC)到 29日的 24点(UTC)
风速7节,风向西转西南
能見度: 10公里
天空无云

TAF: CYXZ 291940Z 2920/2924 24007KT P6SM SKC RMK NXT FCST BY 301300Z

超过4000个机场的气象观测和天气预报(METAR&TAF报告)。

可查询的气象台以黄色和红色小点在地图上表示。

将鼠标移到小点上方,可查看气象台名称。

然后点击查看天气观测和预报。

如需切换地图:点击带黑十字的绿色按钮放大地图;点击带横线的绿色按钮缩小地图;或者点击绿色箭头查看邻近地区的地图。


METAR-TAF: